Main page
METAR-TAF:

METAR-TAF

Airports :

Dallas/Fort Worth International Airport

Dallas / Fort Worth, Texas, United States

latitude: 32-53-49N, longitude: 097-01-19W, elevation: 183 m

Current weather observation

The report was made 39 minutes ago, at 21:53 UTC
Wind 3 kt from variable directions
Temperature 21°C
Humidity 23%
Pressure 1023 hPa
Visibility: 16.1 km
Few clouds at a height of 30000 ft

METAR: KDFW 182153Z VRB03KT 10SM FEW300 21/M01 A3021 RMK AO2 SLP227 T02111006

Time: 17:32 (22:32 UTC)

Forecast

The report was made 1 hour and 42 minutes ago, at 20:50 UTC
Forecast valid from 18 at 20 UTC to 19 at 24 UTC
Wind 6 kt from the South/Southeast
Visibility: 10 km
Scattered clouds at a height of 30000 ft
From 19 at 1600 UTC
Wind 10 kt from the South
Visibility: 10 km
Scattered clouds at a height of 15000 ft
Scattered clouds at a height of 25000 ft

TAF: KDFW 182050Z 1820/1924 16006KT P6SM SCT300 FM191600 19010KT P6SM SCT150 SCT250

Weather observations and forecasts of more than 4000 airports (METAR and TAF reports).

The available stations are represented by yellow and red dots on the map.

Hover mouse over dot to see the name of the station.

Then click to see weather observations and forecasts.

To change the map : click on the green buttons with a black cross to zoom in, on the green button with a dash to zoom out, or on the green arrows for adjacent maps.


METAR-TAF: